createdAt,value
2022-09-17T00:01:44.297Z,178.22053
2022-09-17T00:06:49.081Z,178.22053
2022-09-17T00:11:50.039Z,181.83784
2022-09-17T00:16:50.944Z,179.1145
2022-09-17T00:21:51.876Z,179.1145
2022-09-17T00:26:52.835Z,178.22053
2022-09-17T00:31:53.866Z,178.22053
2022-09-17T00:36:54.852Z,178.22053
2022-09-17T00:41:55.790Z,177.33333
2022-09-17T00:46:56.756Z,180.01533
2022-09-17T00:52:00.509Z,179.1145
2022-09-17T00:57:02.020Z,180.92308
2022-09-17T01:02:03.160Z,179.1145
2022-09-17T01:07:04.262Z,178.22053
2022-09-17T01:12:05.184Z,179.1145
2022-09-17T01:17:06.084Z,178.22053
2022-09-17T01:22:06.994Z,179.1145
2022-09-17T01:27:08.004Z,180.01533
2022-09-17T01:32:09.050Z,178.22053
2022-09-17T01:37:10.122Z,179.1145
2022-09-17T01:42:11.119Z,178.22053
2022-09-17T01:47:12.059Z,180.01533
2022-09-17T01:52:13.029Z,178.22053
2022-09-17T01:57:13.944Z,176.45283
2022-09-17T02:02:14.940Z,177.33333
2022-09-17T02:07:15.984Z,175.57895
2022-09-17T02:12:16.895Z,176.45283
2022-09-17T02:17:17.826Z,178.22053
2022-09-17T02:22:18.877Z,177.33333
2022-09-17T02:27:19.867Z,176.45283
2022-09-17T02:32:20.827Z,178.22053
2022-09-17T02:37:21.766Z,176.45283
2022-09-17T02:42:22.801Z,176.45283
2022-09-17T02:47:23.763Z,177.33333
2022-09-17T02:52:24.656Z,177.33333
2022-09-17T02:57:25.800Z,177.33333
2022-09-17T03:02:26.846Z,176.45283
2022-09-17T03:07:27.860Z,176.45283
2022-09-17T03:12:28.756Z,175.57895
2022-09-17T03:17:29.702Z,176.45283
2022-09-17T03:22:30.637Z,176.45283
2022-09-17T03:27:31.575Z,175.57895
2022-09-17T03:32:32.599Z,175.57895
2022-09-17T03:37:33.626Z,176.45283
2022-09-17T03:42:34.515Z,176.45283
2022-09-17T03:47:35.478Z,176.45283
2022-09-17T03:52:36.424Z,176.45283
2022-09-17T03:57:37.348Z,175.57895
2022-09-17T04:02:38.465Z,176.45283
2022-09-17T04:07:39.524Z,178.22053
2022-09-17T04:12:40.459Z,177.33333
2022-09-17T04:17:41.419Z,176.45283
2022-09-17T04:22:42.356Z,175.57895
2022-09-17T04:27:43.320Z,177.33333
2022-09-17T04:32:44.312Z,177.33333
2022-09-17T04:37:45.206Z,177.33333
2022-09-17T04:42:46.147Z,175.57895
2022-09-17T04:47:47.050Z,176.45283
2022-09-17T04:52:47.981Z,174.71161
2022-09-17T04:57:48.951Z,175.57895
2022-09-17T05:02:49.918Z,177.33333
2022-09-17T05:07:50.852Z,175.57895
2022-09-17T05:12:51.835Z,174.71161
2022-09-17T05:17:52.791Z,173.85075
2022-09-17T05:22:53.680Z,173.85075
2022-09-17T05:27:54.606Z,173.85075
2022-09-17T05:32:55.565Z,173.85075
2022-09-17T05:37:56.484Z,172.14815
2022-09-17T05:42:57.400Z,172.99628
2022-09-17T05:47:58.379Z,172.99628
2022-09-17T05:52:59.285Z,172.99628
2022-09-17T05:58:00.215Z,171.30627
2022-09-17T06:03:01.262Z,171.30627
2022-09-17T06:08:02.195Z,172.14815
2022-09-17T06:13:03.124Z,174.71161
2022-09-17T06:18:04.073Z,174.71161
2022-09-17T06:23:05.027Z,172.99628
2022-09-17T06:28:05.975Z,173.85075
2022-09-17T06:33:06.922Z,172.99628
2022-09-17T06:38:07.877Z,172.99628
2022-09-17T06:43:08.844Z,174.71161
2022-09-17T06:48:09.825Z,174.71161
2022-09-17T06:53:10.815Z,172.99628
2022-09-17T06:58:11.879Z,174.71161
2022-09-17T07:03:13.218Z,175.57895
2022-09-17T07:08:14.142Z,174.71161
2022-09-17T07:13:15.097Z,175.57895
2022-09-17T07:18:16.044Z,175.57895
2022-09-17T07:23:16.978Z,176.45283
2022-09-17T07:28:17.910Z,178.22053
2022-09-17T07:33:18.932Z,180.92308
2022-09-17T07:38:19.854Z,178.22053
2022-09-17T07:43:20.781Z,176.45283
2022-09-17T07:48:21.694Z,178.22053
2022-09-17T07:53:22.689Z,177.33333
2022-09-17T07:58:23.602Z,180.01533
2022-09-17T08:03:24.609Z,177.33333
2022-09-17T08:08:25.853Z,175.57895
2022-09-17T08:13:26.734Z,176.45283
2022-09-17T08:18:27.672Z,176.45283
2022-09-17T08:23:28.582Z,174.71161
2022-09-17T08:28:29.504Z,175.57895
2022-09-17T08:33:30.601Z,178.22053
2022-09-17T08:38:34.560Z,178.22053
2022-09-17T08:43:38.678Z,176.45283
2022-09-17T08:48:39.630Z,176.45283
2022-09-17T08:53:40.510Z,179.1145
2022-09-17T08:58:41.421Z,174.71161
2022-09-17T09:03:42.437Z,174.71161
2022-09-17T09:08:43.383Z,176.45283
2022-09-17T09:13:44.340Z,173.85075
2022-09-17T09:18:45.295Z,179.1145
2022-09-17T09:23:46.302Z,176.45283
2022-09-17T09:28:47.242Z,174.71161
2022-09-17T09:33:48.247Z,174.71161
2022-09-17T09:38:49.299Z,170.47059
2022-09-17T09:44:03.662Z,168.81752
2022-09-17T09:49:04.946Z,171.30627
2022-09-17T09:54:05.968Z,174.71161
2022-09-17T09:59:06.897Z,173.85075
2022-09-17T10:04:07.832Z,178.22053
2022-09-17T10:09:08.767Z,176.45283
2022-09-17T10:14:09.958Z,180.01533
2022-09-17T10:19:10.934Z,178.22053
2022-09-17T10:24:11.931Z,173.85075
2022-09-17T10:29:12.880Z,173.85075
2022-09-17T10:34:13.854Z,172.14815
2022-09-17T10:39:14.818Z,172.14815
2022-09-17T10:44:15.709Z,169.64103
2022-09-17T10:49:16.885Z,173.85075
2022-09-17T10:54:17.926Z,174.71161
2022-09-17T10:59:19.059Z,178.22053
2022-09-17T11:04:20.054Z,177.33333
2022-09-17T11:09:20.957Z,180.01533
2022-09-17T11:14:21.915Z,178.22053
2022-09-17T11:19:22.851Z,178.22053
2022-09-17T11:24:23.840Z,182.75969
2022-09-17T11:29:24.781Z,180.01533
2022-09-17T11:34:26.160Z,180.92308
2022-09-17T11:39:27.290Z,177.33333
2022-09-17T11:44:28.206Z,180.01533
2022-09-17T11:54:29.659Z,179.1145
2022-09-17T11:59:30.586Z,181.83784
2022-09-17T12:04:31.656Z,176.45283
2022-09-17T12:09:32.561Z,181.83784
2022-09-17T12:14:33.477Z,180.92308
2022-09-17T12:19:34.400Z,177.33333
2022-09-17T12:24:35.289Z,179.1145
2022-09-17T12:29:36.297Z,184.625
2022-09-17T12:34:37.403Z,186.51969
2022-09-17T12:39:38.477Z,182.75969
2022-09-17T12:44:39.465Z,182.75969
2022-09-17T12:49:40.384Z,176.45283
2022-09-17T12:54:45.149Z,175.57895
2022-09-17T12:59:46.448Z,171.30627
2022-09-17T13:05:01.123Z,167.18841
2022-09-17T13:10:02.844Z,165.58273
2022-09-17T13:15:03.767Z,167.18841
2022-09-17T13:20:04.730Z,168.81752
2022-09-17T13:25:05.670Z,170.47059
2022-09-17T13:30:06.730Z,176.45283
2022-09-17T13:35:07.655Z,186.51969
2022-09-17T13:40:08.635Z,182.75969
2022-09-17T13:45:13.330Z,178.22053
2022-09-17T13:50:14.570Z,179.1145
2022-09-17T13:55:15.538Z,176.45283
2022-09-17T14:00:16.450Z,180.01533
2022-09-17T14:05:17.423Z,174.71161
2022-09-17T14:10:18.377Z,177.33333
2022-09-17T14:15:19.286Z,182.75969
2022-09-17T14:20:20.198Z,180.92308
2022-09-17T14:25:21.144Z,181.83784
2022-09-17T14:30:22.173Z,182.75969
2022-09-17T14:35:23.261Z,187.47826
2022-09-17T14:40:24.276Z,192.3871
2022-09-17T14:45:25.185Z,187.47826
2022-09-17T14:50:26.510Z,189.41833
2022-09-17T14:55:27.433Z,186.51969
2022-09-17T15:00:28.325Z,187.47826
2022-09-17T15:05:29.260Z,186.51969
2022-09-17T15:10:30.199Z,184.625
2022-09-17T15:15:31.103Z,183.68872
2022-09-17T15:20:32.064Z,188.44444
2022-09-17T15:25:32.964Z,188.44444
2022-09-17T15:30:33.891Z,191.38956
2022-09-17T15:35:34.879Z,186.51969
2022-09-17T15:40:36.026Z,185.56863
2022-09-17T15:45:37.023Z,189.41833
2022-09-17T15:50:37.979Z,195.42857
2022-09-17T15:55:38.947Z,196.45902
2022-09-17T16:00:39.921Z,197.49794
2022-09-17T16:05:40.865Z,198.54545
2022-09-17T16:10:41.779Z,196.45902
2022-09-17T16:15:42.690Z,198.54545
2022-09-17T16:20:43.729Z,192.3871
2022-09-17T16:25:44.637Z,195.42857
2022-09-17T16:30:45.744Z,197.49794
2022-09-17T16:35:46.656Z,196.45902
2022-09-17T16:40:47.567Z,197.49794
2022-09-17T16:45:48.482Z,195.42857
2022-09-17T16:50:49.378Z,195.42857
2022-09-17T16:55:50.335Z,194.4065
2022-09-17T17:00:51.382Z,197.49794
2022-09-17T17:05:52.346Z,196.45902
2022-09-17T17:10:53.260Z,197.49794
2022-09-17T17:15:54.264Z,193.39271
2022-09-17T17:20:55.211Z,195.42857
2022-09-17T17:25:56.134Z,197.49794
2022-09-17T17:30:57.095Z,197.49794
2022-09-17T17:35:58.349Z,197.49794
2022-09-17T17:40:59.327Z,197.49794
2022-09-17T17:46:00.344Z,198.54545
2022-09-17T17:51:01.452Z,194.4065
2022-09-17T17:56:02.429Z,195.42857
2022-09-17T18:01:03.319Z,196.45902
2022-09-17T18:06:04.294Z,193.39271
2022-09-17T18:11:05.254Z,193.39271
2022-09-17T18:16:06.445Z,192.3871
2022-09-17T18:21:07.411Z,191.38956
2022-09-17T18:26:08.361Z,191.38956
2022-09-17T18:31:09.410Z,193.39271
2022-09-17T18:36:10.439Z,191.38956
2022-09-17T18:41:11.370Z,190.4
2022-09-17T18:46:12.332Z,189.41833
2022-09-17T18:51:13.323Z,189.41833
2022-09-17T18:56:14.252Z,189.41833
2022-09-17T19:01:15.208Z,189.41833
2022-09-17T19:06:16.159Z,187.47826
2022-09-17T19:11:17.077Z,186.51969
2022-09-17T19:16:18.164Z,188.44444
2022-09-17T19:21:19.192Z,187.47826
2022-09-17T19:26:20.094Z,188.44444
2022-09-17T19:31:21.108Z,185.56863
2022-09-17T19:36:22.173Z,186.51969
2022-09-17T19:41:23.114Z,185.56863
2022-09-17T19:46:24.183Z,184.625
2022-09-17T19:51:25.230Z,185.56863
2022-09-17T19:56:26.432Z,184.625
2022-09-17T20:01:27.401Z,182.75969
2022-09-17T20:06:28.389Z,183.68872
2022-09-17T20:11:34.512Z,183.68872
2022-09-17T20:16:35.441Z,182.75969
2022-09-17T20:21:36.367Z,181.83784
2022-09-17T20:26:37.300Z,180.92308
2022-09-17T20:31:38.296Z,184.625
2022-09-17T20:36:39.259Z,181.83784
2022-09-17T20:41:40.182Z,182.75969
2022-09-17T20:46:41.194Z,180.92308
2022-09-17T20:51:42.119Z,180.01533
2022-09-17T20:56:43.018Z,180.01533
2022-09-17T21:01:44.007Z,180.01533
2022-09-17T21:06:45.051Z,179.1145
2022-09-17T21:11:45.993Z,179.1145
2022-09-17T21:16:48.366Z,179.1145
2022-09-17T21:21:50.558Z,178.22053
2022-09-17T21:26:51.482Z,178.22053
2022-09-17T21:31:52.583Z,177.33333
2022-09-17T21:36:53.747Z,177.33333
2022-09-17T21:41:54.684Z,176.45283
2022-09-17T21:46:55.757Z,176.45283
2022-09-17T21:51:56.937Z,177.33333
2022-09-17T21:57:13.035Z,179.1145
2022-09-17T22:02:14.204Z,176.45283
2022-09-17T22:07:15.180Z,178.22053
2022-09-17T22:12:16.098Z,177.33333
2022-09-17T22:17:17.140Z,177.33333
2022-09-17T22:22:18.023Z,176.45283
2022-09-17T22:27:19.502Z,180.01533
2022-09-17T22:32:20.524Z,179.1145
2022-09-17T22:37:21.500Z,178.22053
2022-09-17T22:42:22.442Z,177.33333
2022-09-17T22:47:23.328Z,177.33333
2022-09-17T22:52:24.252Z,177.33333
2022-09-17T22:57:25.122Z,177.33333
2022-09-17T23:02:26.114Z,179.1145
2022-09-17T23:07:27.345Z,179.1145
2022-09-17T23:12:28.231Z,178.22053
2022-09-17T23:17:29.508Z,177.33333
2022-09-17T23:22:30.862Z,177.33333
2022-09-17T23:27:31.800Z,176.45283
2022-09-17T23:32:32.698Z,176.45283
2022-09-17T23:37:33.635Z,176.45283
2022-09-17T23:42:34.547Z,176.45283
2022-09-17T23:47:35.455Z,175.57895
2022-09-17T23:57:42.002Z,175.57895
